sensor_id;sensor_type;location;lat;lon;timestamp;pressure;altitude;pressure_sealevel;temperature;humidity
44079;BME280;29744;49.078;12.878;2023-02-19T00:04:53;96669.59;;;15.42;32.83
44079;BME280;29744;49.078;12.878;2023-02-19T00:09:54;96665.31;;;15.41;32.99
44079;BME280;29744;49.078;12.878;2023-02-19T00:14:54;96655.16;;;15.38;32.61
44079;BME280;29744;49.078;12.878;2023-02-19T00:19:56;96656.25;;;15.37;33.26
44079;BME280;29744;49.078;12.878;2023-02-19T00:24:56;96655.78;;;15.35;33.12
44079;BME280;29744;49.078;12.878;2023-02-19T00:29:56;96652.63;;;15.33;32.67
44079;BME280;29744;49.078;12.878;2023-02-19T00:34:57;96641.34;;;15.31;33.28
44079;BME280;29744;49.078;12.878;2023-02-19T00:39:57;96637.06;;;15.30;32.86
44079;BME280;29744;49.078;12.878;2023-02-19T00:44:58;96642.78;;;15.29;33.02
44079;BME280;29744;49.078;12.878;2023-02-19T00:49:58;96645.00;;;15.27;33.24
44079;BME280;29744;49.078;12.878;2023-02-19T00:54:58;96639.59;;;15.27;33.01
44079;BME280;29744;49.078;12.878;2023-02-19T00:59:59;96642.97;;;15.24;32.90
44079;BME280;29744;49.078;12.878;2023-02-19T01:04:59;96649.47;;;15.23;33.29
44079;BME280;29744;49.078;12.878;2023-02-19T01:09:59;96656.00;;;15.22;33.31
44079;BME280;29744;49.078;12.878;2023-02-19T01:15:00;96645.50;;;15.20;32.98
44079;BME280;29744;49.078;12.878;2023-02-19T01:20:00;96636.94;;;15.18;33.18
44079;BME280;29744;49.078;12.878;2023-02-19T01:25:00;96626.44;;;15.17;32.82
44079;BME280;29744;49.078;12.878;2023-02-19T01:30:00;96622.97;;;15.16;32.88
44079;BME280;29744;49.078;12.878;2023-02-19T01:35:01;96617.09;;;15.14;33.23
44079;BME280;29744;49.078;12.878;2023-02-19T01:40:01;96618.19;;;15.13;33.13
44079;BME280;29744;49.078;12.878;2023-02-19T01:45:22;96596.44;;;15.09;33.49
44079;BME280;29744;49.078;12.878;2023-02-19T01:50:26;96578.66;;;15.08;33.15
44079;BME280;29744;49.078;12.878;2023-02-19T01:55:27;96574.38;;;15.07;32.92
44079;BME280;29744;49.078;12.878;2023-02-19T02:00:28;96570.09;;;15.06;33.11
44079;BME280;29744;49.078;12.878;2023-02-19T02:05:40;96558.00;;;15.04;33.51
44079;BME280;29744;49.078;12.878;2023-02-19T02:10:43;96547.53;;;15.02;33.02
44079;BME280;29744;49.078;12.878;2023-02-19T02:15:50;96534.31;;;15.01;33.36
44079;BME280;29744;49.078;12.878;2023-02-19T02:31:40;96515.59;;;14.96;33.18
44079;BME280;29744;49.078;12.878;2023-02-19T02:36:43;96498.94;;;14.94;33.58
44079;BME280;29744;49.078;12.878;2023-02-19T02:41:48;96509.72;;;14.94;33.45
44079;BME280;29744;49.078;12.878;2023-02-19T02:47:10;96488.78;;;14.91;33.43
44079;BME280;29744;49.078;12.878;2023-02-19T02:52:32;96475.28;;;14.91;33.63
44079;BME280;29744;49.078;12.878;2023-02-19T02:57:54;96476.72;;;14.88;33.19
44079;BME280;29744;49.078;12.878;2023-02-19T03:02:55;96472.44;;;14.87;33.42
44079;BME280;29744;49.078;12.878;2023-02-19T03:13:09;96457.34;;;14.86;33.74
44079;BME280;29744;49.078;12.878;2023-02-19T03:18:31;96440.22;;;14.82;33.15
44079;BME280;29744;49.078;12.878;2023-02-19T03:23:52;96441.00;;;14.82;33.23
44079;BME280;29744;49.078;12.878;2023-02-19T03:29:12;96444.03;;;14.81;33.73
44079;BME280;29744;49.078;12.878;2023-02-19T03:34:26;96459.44;;;14.80;33.37
44079;BME280;29744;49.078;12.878;2023-02-19T03:39:28;96454.38;;;14.79;33.24
44079;BME280;29744;49.078;12.878;2023-02-19T03:50:41;96459.63;;;14.75;33.66
44079;BME280;29744;49.078;12.878;2023-02-19T04:01:04;96458.84;;;14.75;33.86
44079;BME280;29744;49.078;12.878;2023-02-19T04:06:16;96448.34;;;14.73;33.32
44079;BME280;29744;49.078;12.878;2023-02-19T04:11:19;96437.56;;;14.73;33.93
44079;BME280;29744;49.078;12.878;2023-02-19T04:16:24;96431.38;;;14.73;33.57
44079;BME280;29744;49.078;12.878;2023-02-19T04:21:27;96417.06;;;14.72;33.59
44079;BME280;29744;49.078;12.878;2023-02-19T04:26:30;96426.28;;;14.71;33.83
44079;BME280;29744;49.078;12.878;2023-02-19T04:31:32;96433.59;;;14.71;33.64
44079;BME280;29744;49.078;12.878;2023-02-19T04:36:34;96423.91;;;14.70;33.81
44079;BME280;29744;49.078;12.878;2023-02-19T04:41:35;96420.44;;;14.69;33.32
44079;BME280;29744;49.078;12.878;2023-02-19T04:46:35;96432.81;;;14.70;33.61
44079;BME280;29744;49.078;12.878;2023-02-19T04:51:35;96434.84;;;14.73;33.80
44079;BME280;29744;49.078;12.878;2023-02-19T04:56:36;96428.47;;;14.78;33.25
44079;BME280;29744;49.078;12.878;2023-02-19T05:01:36;96430.69;;;14.85;33.49
44079;BME280;29744;49.078;12.878;2023-02-19T05:06:36;96436.81;;;14.94;33.43
44079;BME280;29744;49.078;12.878;2023-02-19T05:11:36;96432.19;;;15.03;33.28
44079;BME280;29744;49.078;12.878;2023-02-19T05:16:37;96448.03;;;15.13;33.61
44079;BME280;29744;49.078;12.878;2023-02-19T05:21:37;96450.03;;;15.25;33.36
44079;BME280;29744;49.078;12.878;2023-02-19T05:26:41;96448.53;;;15.36;32.98
44079;BME280;29744;49.078;12.878;2023-02-19T05:31:41;96445.88;;;15.48;33.15
44079;BME280;29744;49.078;12.878;2023-02-19T05:36:41;96450.25;;;15.61;33.31
44079;BME280;29744;49.078;12.878;2023-02-19T05:41:42;96453.78;;;15.74;32.94
44079;BME280;29744;49.078;12.878;2023-02-19T05:46:42;96464.25;;;15.84;33.04
44079;BME280;29744;49.078;12.878;2023-02-19T05:51:42;96478.59;;;15.97;32.59
44079;BME280;29744;49.078;12.878;2023-02-19T05:56:42;96471.22;;;16.06;32.85
44079;BME280;29744;49.078;12.878;2023-02-19T06:01:43;96466.84;;;16.14;32.59
44079;BME280;29744;49.078;12.878;2023-02-19T06:06:44;96464.72;;;16.19;32.70
44079;BME280;29744;49.078;12.878;2023-02-19T06:11:44;96477.25;;;16.24;32.51
44079;BME280;29744;49.078;12.878;2023-02-19T06:16:45;96484.03;;;16.30;32.58
44079;BME280;29744;49.078;12.878;2023-02-19T06:21:45;96477.94;;;16.33;32.53
44079;BME280;29744;49.078;12.878;2023-02-19T06:26:45;96482.25;;;16.34;32.75
44079;BME280;29744;49.078;12.878;2023-02-19T06:31:46;96489.22;;;16.35;32.64
44079;BME280;29744;49.078;12.878;2023-02-19T06:36:47;96493.53;;;16.36;32.44
44079;BME280;29744;49.078;12.878;2023-02-19T06:41:48;96497.03;;;16.36;32.56
44079;BME280;29744;49.078;12.878;2023-02-19T06:46:48;96512.47;;;16.36;32.63
44079;BME280;29744;49.078;12.878;2023-02-19T06:51:49;96507.06;;;16.36;32.17
44079;BME280;29744;49.078;12.878;2023-02-19T06:56:49;96510.09;;;16.34;32.06
44079;BME280;29744;49.078;12.878;2023-02-19T07:01:49;96532.88;;;16.33;32.07
44079;BME280;29744;49.078;12.878;2023-02-19T07:06:49;96530.50;;;16.32;32.58
44079;BME280;29744;49.078;12.878;2023-02-19T07:11:50;96538.94;;;16.30;32.42
44079;BME280;29744;49.078;12.878;2023-02-19T07:16:50;96534.19;;;16.27;32.14
44079;BME280;29744;49.078;12.878;2023-02-19T07:21:50;96547.28;;;16.25;32.41
44079;BME280;29744;49.078;12.878;2023-02-19T07:26:51;96548.84;;;16.26;32.29
44079;BME280;29744;49.078;12.878;2023-02-19T07:31:51;96558.56;;;16.27;32.24
44079;BME280;29744;49.078;12.878;2023-02-19T07:36:51;96560.59;;;16.30;32.35
44079;BME280;29744;49.078;12.878;2023-02-19T07:41:51;96557.56;;;16.32;32.28
44079;BME280;29744;49.078;12.878;2023-02-19T07:46:52;96560.38;;;16.35;32.00
44079;BME280;29744;49.078;12.878;2023-02-19T07:51:52;96575.63;;;16.40;32.30
44079;BME280;29744;49.078;12.878;2023-02-19T07:56:52;96576.13;;;16.42;32.14
44079;BME280;29744;49.078;12.878;2023-02-19T08:01:52;96566.53;;;16.45;32.55
44079;BME280;29744;49.078;12.878;2023-02-19T08:07:11;96570.03;;;16.45;32.48
44079;BME280;29744;49.078;12.878;2023-02-19T08:12:11;96560.81;;;16.46;32.40
44079;BME280;29744;49.078;12.878;2023-02-19T08:17:30;96568.47;;;16.44;32.17
44079;BME280;29744;49.078;12.878;2023-02-19T08:22:31;96575.47;;;16.45;32.47
44079;BME280;29744;49.078;12.878;2023-02-19T08:27:31;96590.13;;;16.44;31.96
44079;BME280;29744;49.078;12.878;2023-02-19T08:32:31;96607.47;;;16.43;32.47
44079;BME280;29744;49.078;12.878;2023-02-19T08:37:31;96613.22;;;16.41;32.06
44079;BME280;29744;49.078;12.878;2023-02-19T08:42:32;96599.19;;;16.39;32.43
44079;BME280;29744;49.078;12.878;2023-02-19T08:47:35;96618.47;;;16.38;32.05
44079;BME280;29744;49.078;12.878;2023-02-19T08:52:37;96628.06;;;16.35;32.13
44079;BME280;29744;49.078;12.878;2023-02-19T08:57:37;96623.31;;;16.32;32.01
44079;BME280;29744;49.078;12.878;2023-02-19T09:02:37;96622.03;;;16.30;32.54
44079;BME280;29744;49.078;12.878;2023-02-19T09:07:39;96620.78;;;16.27;32.62
44079;BME280;29744;49.078;12.878;2023-02-19T09:12:40;96636.91;;;16.24;32.45
44079;BME280;29744;49.078;12.878;2023-02-19T09:17:40;96628.31;;;16.22;32.27
44079;BME280;29744;49.078;12.878;2023-02-19T09:22:40;96632.47;;;16.19;32.40
44079;BME280;29744;49.078;12.878;2023-02-19T09:27:40;96638.53;;;16.16;32.54
44079;BME280;29744;49.078;12.878;2023-02-19T09:32:41;96644.59;;;16.13;32.47
44079;BME280;29744;49.078;12.878;2023-02-19T09:37:41;96646.84;;;16.11;32.66
44079;BME280;29744;49.078;12.878;2023-02-19T09:42:42;96640.19;;;16.08;32.54
44079;BME280;29744;49.078;12.878;2023-02-19T09:47:42;96639.72;;;16.06;32.76
44079;BME280;29744;49.078;12.878;2023-02-19T09:52:54;96639.59;;;16.03;32.57
44079;BME280;29744;49.078;12.878;2023-02-19T09:57:58;96636.41;;;16.01;32.58
44079;BME280;29744;49.078;12.878;2023-02-19T10:03:10;96640.91;;;15.97;32.79
44079;BME280;29744;49.078;12.878;2023-02-19T10:08:17;96655.88;;;15.94;32.69
44079;BME280;29744;49.078;12.878;2023-02-19T10:13:19;96652.22;;;15.90;32.52
44079;BME280;29744;49.078;12.878;2023-02-19T10:18:26;96675.31;;;15.88;32.80
44079;BME280;29744;49.078;12.878;2023-02-19T10:23:30;96685.66;;;15.86;32.63
44079;BME280;29744;49.078;12.878;2023-02-19T10:28:33;96684.41;;;15.83;32.81
44079;BME280;29744;49.078;12.878;2023-02-19T10:33:49;96693.47;;;15.78;32.89
44079;BME280;29744;49.078;12.878;2023-02-19T10:38:51;96698.06;;;15.78;32.58
44079;BME280;29744;49.078;12.878;2023-02-19T10:44:03;96701.75;;;15.73;32.95
44079;BME280;29744;49.078;12.878;2023-02-19T10:54:29;96697.31;;;15.69;32.81
44079;BME280;29744;49.078;12.878;2023-02-19T10:59:31;96704.97;;;15.67;33.00
44079;BME280;29744;49.078;12.878;2023-02-19T11:04:32;96697.19;;;15.65;32.78
44079;BME280;29744;49.078;12.878;2023-02-19T11:09:38;96705.63;;;15.64;33.07
44079;BME280;29744;49.078;12.878;2023-02-19T11:14:43;96706.72;;;15.63;32.72
44079;BME280;29744;49.078;12.878;2023-02-19T11:19:43;96701.19;;;15.59;33.00
44079;BME280;29744;49.078;12.878;2023-02-19T11:24:48;96697.69;;;15.59;33.23
44079;BME280;29744;49.078;12.878;2023-02-19T11:29:49;96686.41;;;15.57;32.92
44079;BME280;29744;49.078;12.878;2023-02-19T11:34:51;96688.63;;;15.55;32.63
44079;BME280;29744;49.078;12.878;2023-02-19T11:39:51;96684.34;;;15.54;32.97
44079;BME280;29744;49.078;12.878;2023-02-19T11:45:12;96692.31;;;15.50;32.96
44079;BME280;29744;49.078;12.878;2023-02-19T11:50:29;96706.16;;;15.49;32.92
44079;BME280;29744;49.078;12.878;2023-02-19T11:56:01;96697.09;;;15.44;32.81
44079;BME280;29744;49.078;12.878;2023-02-19T12:01:19;96722.53;;;15.43;33.16
44079;BME280;29744;49.078;12.878;2023-02-19T12:11:49;96713.47;;;15.39;33.18
44079;BME280;29744;49.078;12.878;2023-02-19T12:17:13;96730.81;;;15.38;33.00
44079;BME280;29744;49.078;12.878;2023-02-19T12:22:26;96731.13;;;15.37;32.86
44079;BME280;29744;49.078;12.878;2023-02-19T12:33:07;96727.16;;;15.34;32.99
44079;BME280;29744;49.078;12.878;2023-02-19T12:38:30;96717.78;;;15.32;33.07
44079;BME280;29744;49.078;12.878;2023-02-19T12:43:34;96732.41;;;15.31;33.27
44079;BME280;29744;49.078;12.878;2023-02-19T12:58:54;96747.84;;;15.30;33.47
44079;BME280;29744;49.078;12.878;2023-02-19T13:04:13;96735.44;;;15.29;33.10
44079;BME280;29744;49.078;12.878;2023-02-19T13:09:21;96735.44;;;15.29;33.20
44079;BME280;29744;49.078;12.878;2023-02-19T13:14:36;96739.91;;;15.25;33.06
44079;BME280;29744;49.078;12.878;2023-02-19T13:19:39;96743.72;;;15.24;33.43
44079;BME280;29744;49.078;12.878;2023-02-19T13:24:40;96755.63;;;15.23;33.39
44079;BME280;29744;49.078;12.878;2023-02-19T13:30:11;96754.38;;;15.21;33.38
44079;BME280;29744;49.078;12.878;2023-02-19T13:40:35;96753.41;;;15.17;33.67
44079;BME280;29744;49.078;12.878;2023-02-19T13:45:47;96744.84;;;15.14;33.49
44079;BME280;29744;49.078;12.878;2023-02-19T14:12:17;96764.06;;;15.04;33.48
44079;BME280;29744;49.078;12.878;2023-02-19T14:17:37;96775.69;;;15.05;33.26
44079;BME280;29744;49.078;12.878;2023-02-19T14:27:44;96771.22;;;15.09;33.84
44079;BME280;29744;49.078;12.878;2023-02-19T14:32:44;96771.06;;;15.14;33.49
44079;BME280;29744;49.078;12.878;2023-02-19T14:37:45;96779.81;;;15.20;33.28
44079;BME280;29744;49.078;12.878;2023-02-19T14:42:48;96775.81;;;15.26;33.21
44079;BME280;29744;49.078;12.878;2023-02-19T14:47:50;96782.66;;;15.32;33.74
44079;BME280;29744;49.078;12.878;2023-02-19T14:52:56;96805.38;;;15.39;33.30
44079;BME280;29744;49.078;12.878;2023-02-19T14:58:00;96811.09;;;15.46;33.09
44079;BME280;29744;49.078;12.878;2023-02-19T15:03:01;96819.50;;;15.54;32.98
44079;BME280;29744;49.078;12.878;2023-02-19T15:08:11;96826.00;;;15.61;32.99
44079;BME280;29744;49.078;12.878;2023-02-19T15:13:18;96819.00;;;15.69;32.93
44079;BME280;29744;49.078;12.878;2023-02-19T15:18:25;96825.50;;;15.76;32.87
44079;BME280;29744;49.078;12.878;2023-02-19T15:23:28;96839.34;;;15.84;33.25
44079;BME280;29744;49.078;12.878;2023-02-19T15:28:32;96820.56;;;15.87;32.87
44079;BME280;29744;49.078;12.878;2023-02-19T15:33:33;96821.50;;;15.91;32.74
44079;BME280;29744;49.078;12.878;2023-02-19T15:38:34;96814.34;;;15.95;32.59
44079;BME280;29744;49.078;12.878;2023-02-19T15:43:48;96819.41;;;15.97;33.06
44079;BME280;29744;49.078;12.878;2023-02-19T15:49:00;96816.41;;;15.98;32.65
44079;BME280;29744;49.078;12.878;2023-02-19T15:54:13;96823.38;;;15.99;32.62
44079;BME280;29744;49.078;12.878;2023-02-19T15:59:24;96819.88;;;15.99;32.91
44079;BME280;29744;49.078;12.878;2023-02-19T16:04:26;96818.78;;;16.00;33.06
44079;BME280;29744;49.078;12.878;2023-02-19T16:09:37;96829.91;;;15.98;33.05
44079;BME280;29744;49.078;12.878;2023-02-19T16:14:40;96845.34;;;15.98;32.68
44079;BME280;29744;49.078;12.878;2023-02-19T16:19:54;96859.69;;;15.98;32.61
44079;BME280;29744;49.078;12.878;2023-02-19T16:25:01;96864.94;;;15.95;32.79
44079;BME280;29744;49.078;12.878;2023-02-19T16:30:26;96873.38;;;15.93;33.09
44079;BME280;29744;49.078;12.878;2023-02-19T16:35:38;96877.50;;;15.91;32.89
44079;BME280;29744;49.078;12.878;2023-02-19T16:45:47;96887.38;;;15.87;32.90
44079;BME280;29744;49.078;12.878;2023-02-19T16:50:48;96897.72;;;15.85;32.79
44079;BME280;29744;49.078;12.878;2023-02-19T16:55:49;96908.88;;;15.83;32.92
44079;BME280;29744;49.078;12.878;2023-02-19T17:00:49;96926.22;;;15.82;33.14
44079;BME280;29744;49.078;12.878;2023-02-19T17:05:50;96924.94;;;15.80;32.88
44079;BME280;29744;49.078;12.878;2023-02-19T17:10:51;96930.34;;;15.80;32.93
44079;BME280;29744;49.078;12.878;2023-02-19T17:15:51;96940.34;;;15.79;32.76
44079;BME280;29744;49.078;12.878;2023-02-19T17:21:00;96937.94;;;15.77;32.89
44079;BME280;29744;49.078;12.878;2023-02-19T17:26:01;96939.88;;;15.77;32.98
44079;BME280;29744;49.078;12.878;2023-02-19T17:31:01;96949.09;;;15.76;33.20
44079;BME280;29744;49.078;12.878;2023-02-19T17:36:01;96960.22;;;15.74;32.89
44079;BME280;29744;49.078;12.878;2023-02-19T17:41:02;96972.94;;;15.74;32.95
44079;BME280;29744;49.078;12.878;2023-02-19T17:46:02;96978.19;;;15.70;32.61
44079;BME280;29744;49.078;12.878;2023-02-19T17:51:03;96972.31;;;15.68;32.92
44079;BME280;29744;49.078;12.878;2023-02-19T17:56:03;96998.88;;;15.66;32.66
44079;BME280;29744;49.078;12.878;2023-02-19T18:01:04;97010.00;;;15.65;32.76
44079;BME280;29744;49.078;12.878;2023-02-19T18:06:04;97027.34;;;15.64;33.07
44079;BME280;29744;49.078;12.878;2023-02-19T18:11:05;97036.56;;;15.63;32.88
44079;BME280;29744;49.078;12.878;2023-02-19T18:16:06;97030.34;;;15.62;33.03
44079;BME280;29744;49.078;12.878;2023-02-19T18:21:07;97040.06;;;15.63;33.22
44079;BME280;29744;49.078;12.878;2023-02-19T18:26:09;97047.53;;;15.66;32.88
44079;BME280;29744;49.078;12.878;2023-02-19T18:31:10;97051.84;;;15.67;33.09
44079;BME280;29744;49.078;12.878;2023-02-19T18:36:11;97059.00;;;15.72;32.87
44079;BME280;29744;49.078;12.878;2023-02-19T18:41:12;97068.06;;;15.76;32.82
44079;BME280;29744;49.078;12.878;2023-02-19T18:46:12;97070.16;;;15.79;32.70
44079;BME280;29744;49.078;12.878;2023-02-19T18:51:13;97074.97;;;15.82;33.24
44079;BME280;29744;49.078;12.878;2023-02-19T18:56:14;97078.63;;;15.86;32.71
44079;BME280;29744;49.078;12.878;2023-02-19T19:01:14;97065.56;;;15.88;32.78
44079;BME280;29744;49.078;12.878;2023-02-19T19:06:14;97078.78;;;15.90;32.63
44079;BME280;29744;49.078;12.878;2023-02-19T19:11:15;97085.31;;;15.89;33.10
44079;BME280;29744;49.078;12.878;2023-02-19T19:16:15;97077.19;;;15.89;32.60
44079;BME280;29744;49.078;12.878;2023-02-19T19:21:16;97083.41;;;15.89;32.76
44079;BME280;29744;49.078;12.878;2023-02-19T19:26:16;97089.91;;;15.88;32.90
44079;BME280;29744;49.078;12.878;2023-02-19T19:31:18;97096.44;;;15.87;32.57
44079;BME280;29744;49.078;12.878;2023-02-19T19:36:20;97093.75;;;15.87;32.85
44079;BME280;29744;49.078;12.878;2023-02-19T19:41:21;97094.06;;;15.86;33.13
44079;BME280;29744;49.078;12.878;2023-02-19T19:46:21;97091.66;;;15.84;32.84
44079;BME280;29744;49.078;12.878;2023-02-19T19:51:22;97091.97;;;15.83;32.95
44079;BME280;29744;49.078;12.878;2023-02-19T19:56:22;97094.19;;;15.81;32.94
44079;BME280;29744;49.078;12.878;2023-02-19T20:01:22;97095.59;;;15.78;33.14
44079;BME280;29744;49.078;12.878;2023-02-19T20:06:25;97092.41;;;15.76;32.97
44079;BME280;29744;49.078;12.878;2023-02-19T20:11:26;97102.75;;;15.74;32.92
44079;BME280;29744;49.078;12.878;2023-02-19T20:16:27;97110.69;;;15.70;33.05
44079;BME280;29744;49.078;12.878;2023-02-19T20:21:27;97115.63;;;15.68;33.18
44079;BME280;29744;49.078;12.878;2023-02-19T20:26:28;97121.34;;;15.67;32.81
44079;BME280;29744;49.078;12.878;2023-02-19T20:31:29;97133.59;;;15.64;32.90
44079;BME280;29744;49.078;12.878;2023-02-19T20:36:29;97131.19;;;15.63;33.12
44079;BME280;29744;49.078;12.878;2023-02-19T20:41:31;97129.28;;;15.63;33.08
44079;BME280;29744;49.078;12.878;2023-02-19T20:46:31;97124.69;;;15.64;33.13
44079;BME280;29744;49.078;12.878;2023-02-19T20:51:31;97138.69;;;15.66;32.83
44079;BME280;29744;49.078;12.878;2023-02-19T20:56:31;97148.38;;;15.67;33.24
44079;BME280;29744;49.078;12.878;2023-02-19T21:01:32;97153.47;;;15.68;33.07
44079;BME280;29744;49.078;12.878;2023-02-19T21:06:32;97155.88;;;15.70;32.78
44079;BME280;29744;49.078;12.878;2023-02-19T21:11:32;97155.88;;;15.70;33.25
44079;BME280;29744;49.078;12.878;2023-02-19T21:16:33;97145.06;;;15.70;32.72
44079;BME280;29744;49.078;12.878;2023-02-19T21:21:33;97145.06;;;15.70;32.74
44079;BME280;29744;49.078;12.878;2023-02-19T21:26:36;97152.38;;;15.69;33.04
44079;BME280;29744;49.078;12.878;2023-02-19T21:36:39;97147.28;;;15.68;32.75
44079;BME280;29744;49.078;12.878;2023-02-19T21:41:39;97150.28;;;15.66;32.92
44079;BME280;29744;49.078;12.878;2023-02-19T21:46:39;97164.13;;;15.65;32.92
44079;BME280;29744;49.078;12.878;2023-02-19T21:51:41;97156.00;;;15.65;33.00
44079;BME280;29744;49.078;12.878;2023-02-19T21:56:42;97163.63;;;15.63;33.26
44079;BME280;29744;49.078;12.878;2023-02-19T22:01:43;97168.56;;;15.61;33.15
44079;BME280;29744;49.078;12.878;2023-02-19T22:06:43;97166.16;;;15.59;32.88
44079;BME280;29744;49.078;12.878;2023-02-19T22:11:44;97158.38;;;15.58;33.28
44079;BME280;29744;49.078;12.878;2023-02-19T22:16:44;97173.31;;;15.55;33.02
44079;BME280;29744;49.078;12.878;2023-02-19T22:21:44;97166.63;;;15.53;32.92
44079;BME280;29744;49.078;12.878;2023-02-19T22:26:45;97174.25;;;15.51;33.25
44079;BME280;29744;49.078;12.878;2023-02-19T22:31:45;97179.16;;;15.49;33.07
44079;BME280;29744;49.078;12.878;2023-02-19T22:36:46;97177.56;;;15.48;33.02
44079;BME280;29744;49.078;12.878;2023-02-19T22:41:47;97177.09;;;15.45;33.22
44079;BME280;29744;49.078;12.878;2023-02-19T22:46:50;97190.91;;;15.44;33.24
44079;BME280;29744;49.078;12.878;2023-02-19T22:52:01;97199.34;;;15.42;33.20
44079;BME280;29744;49.078;12.878;2023-02-19T22:57:03;97206.94;;;15.40;33.15
44079;BME280;29744;49.078;12.878;2023-02-19T23:02:03;97210.75;;;15.39;33.35
44079;BME280;29744;49.078;12.878;2023-02-19T23:07:06;97203.75;;;15.38;33.44
44079;BME280;29744;49.078;12.878;2023-02-19T23:12:09;97207.09;;;15.35;33.18
44079;BME280;29744;49.078;12.878;2023-02-19T23:17:10;97204.69;;;15.34;33.53
44079;BME280;29744;49.078;12.878;2023-02-19T23:22:10;97204.22;;;15.32;33.29
44079;BME280;29744;49.078;12.878;2023-02-19T23:27:10;97201.81;;;15.30;33.23
44079;BME280;29744;49.078;12.878;2023-02-19T23:32:11;97199.72;;;15.27;33.07
44079;BME280;29744;49.078;12.878;2023-02-19T23:37:11;97204.66;;;15.25;33.19
44079;BME280;29744;49.078;12.878;2023-02-19T23:42:14;97208.47;;;15.24;33.49
44079;BME280;29744;49.078;12.878;2023-02-19T23:47:18;97198.25;;;15.21;33.13
44079;BME280;29744;49.078;12.878;2023-02-19T23:52:19;97195.06;;;15.19;33.17
44079;BME280;29744;49.078;12.878;2023-02-19T23:57:19;97194.28;;;15.19;33.44
